SARF/FMA METAR and TAF weather

Enter ICAO airport designator
Station Type Date Time Source
SARF METAR 2019/04/25 18:20 UTC NOAA

SARF 251820Z 07010KT 3000 -TSRA BKN020 FEW050CB BKN050 27/24 Q1012


Station Type Date Time Source
SARF Decoded METAR 2019/04/25 18:20 UTC NOAA

Formosa Aerodrome, Argentina (SARF) 26-12S 058-14W 60M
Apr 25, 2019 - 02:20 PM EDT / 2019.04.25 1820 UTC
Wind: from the ENE (070 degrees) at 12 MPH (10 KT):0
Visibility: 1 mile(s):0
Sky conditions: mostly cloudy
Weather: light rain with thunder; Cumulonimbus clouds observed
Temperature: 80 F (27 C)
Dew Point: 75 F (24 C)
Relative Humidity: 83%
Pressure (altimeter): 29.88 in. Hg (1012 hPa)
ob: SARF 251820Z 07010KT 3000 -TSRA BKN020 FEW050CB BKN050 27/24 Q1012
cycle: 18

Station Type Date Time Source
SARF TAF 2019/04/25 18:33 UTC NOAA

TAF SARF 251700Z 2518/2618 09005KT 5000 RADZ BKN007 OVC012 TX27/2518Z TN20/2609Z
BECMG 2519/2521 6000 TSRA OVC005 OVC015 FEW050CB

Example: see airport list